Terminal Aerodrome Forecast
Issued by NWS

Home | Current Version | Previous Version | Text Only | Print | Product List | Glossary On
Versions: 1 2 3 4 5 6 7 8 9 10 11 12 13
000
FTUS45 KABQ 230812 AAA
TAFSAF
TAF AMD
KSAF 230812Z 2308/2406 16010KT P6SM BKN200
     FM231600 22015G25KT P6SM SCT140
     FM231900 25022G32KT P6SM BKN080
     FM232200 26024G34KT P6SM VCSH BKN060
     FM240300 25017KT P6SM VCSH BKN035=

USA.gov is the U.S. government's official web portal to all federal, state and local government web resources and services.